sensor_id;sensor_type;location;lat;lon;timestamp;P1;durP1;ratioP1;P2;durP2;ratioP2
22191;SDS011;11261;52.456;10.850;2023-08-17T00:02:16;3.20;;;1.40;;
22191;SDS011;11261;52.456;10.850;2023-08-17T00:04:44;5.22;;;1.70;;
22191;SDS011;11261;52.456;10.850;2023-08-17T00:07:13;2.85;;;1.58;;
22191;SDS011;11261;52.456;10.850;2023-08-17T00:09:42;2.45;;;1.40;;
22191;SDS011;11261;52.456;10.850;2023-08-17T00:12:10;4.50;;;1.73;;
22191;SDS011;11261;52.456;10.850;2023-08-17T00:14:39;6.57;;;1.80;;
22191;SDS011;11261;52.456;10.850;2023-08-17T00:17:07;1.75;;;1.58;;
22191;SDS011;11261;52.456;10.850;2023-08-17T00:19:35;3.22;;;1.50;;
22191;SDS011;11261;52.456;10.850;2023-08-17T00:22:04;2.47;;;1.52;;
22191;SDS011;11261;52.456;10.850;2023-08-17T00:24:32;3.88;;;1.38;;
22191;SDS011;11261;52.456;10.850;2023-08-17T00:27:02;3.47;;;1.80;;
22191;SDS011;11261;52.456;10.850;2023-08-17T00:29:31;4.28;;;1.60;;
22191;SDS011;11261;52.456;10.850;2023-08-17T00:32:01;2.63;;;1.52;;
22191;SDS011;11261;52.456;10.850;2023-08-17T00:34:30;3.45;;;1.90;;
22191;SDS011;11261;52.456;10.850;2023-08-17T00:36:58;2.03;;;1.50;;
22191;SDS011;11261;52.456;10.850;2023-08-17T00:39:26;2.58;;;1.60;;
22191;SDS011;11261;52.456;10.850;2023-08-17T00:41:54;4.35;;;1.73;;
22191;SDS011;11261;52.456;10.850;2023-08-17T00:44:24;2.40;;;1.80;;
22191;SDS011;11261;52.456;10.850;2023-08-17T00:46:52;6.10;;;1.60;;
22191;SDS011;11261;52.456;10.850;2023-08-17T00:49:21;3.22;;;1.70;;
22191;SDS011;11261;52.456;10.850;2023-08-17T00:51:50;4.15;;;1.50;;
22191;SDS011;11261;52.456;10.850;2023-08-17T00:54:19;2.63;;;1.75;;
22191;SDS011;11261;52.456;10.850;2023-08-17T00:56:52;4.38;;;1.73;;
22191;SDS011;11261;52.456;10.850;2023-08-17T00:59:21;3.38;;;1.80;;
22191;SDS011;11261;52.456;10.850;2023-08-17T01:01:52;3.47;;;1.77;;
22191;SDS011;11261;52.456;10.850;2023-08-17T01:04:21;4.88;;;1.90;;
22191;SDS011;11261;52.456;10.850;2023-08-17T01:06:49;4.35;;;1.77;;
22191;SDS011;11261;52.456;10.850;2023-08-17T01:09:17;3.45;;;1.75;;
22191;SDS011;11261;52.456;10.850;2023-08-17T01:11:47;4.45;;;2.25;;
22191;SDS011;11261;52.456;10.850;2023-08-17T01:14:22;4.25;;;1.90;;
22191;SDS011;11261;52.456;10.850;2023-08-17T01:17:00;5.05;;;2.03;;
22191;SDS011;11261;52.456;10.850;2023-08-17T01:19:34;3.28;;;2.40;;
22191;SDS011;11261;52.456;10.850;2023-08-17T01:22:04;4.60;;;2.30;;
22191;SDS011;11261;52.456;10.850;2023-08-17T01:24:37;4.43;;;2.33;;
22191;SDS011;11261;52.456;10.850;2023-08-17T01:27:05;4.95;;;1.83;;
22191;SDS011;11261;52.456;10.850;2023-08-17T01:29:33;4.32;;;2.13;;
22191;SDS011;11261;52.456;10.850;2023-08-17T01:32:03;4.18;;;1.80;;
22191;SDS011;11261;52.456;10.850;2023-08-17T01:34:36;3.63;;;2.05;;
22191;SDS011;11261;52.456;10.850;2023-08-17T01:37:08;5.70;;;2.10;;
22191;SDS011;11261;52.456;10.850;2023-08-17T01:39:42;2.90;;;2.08;;
22191;SDS011;11261;52.456;10.850;2023-08-17T01:42:12;6.00;;;2.20;;
22191;SDS011;11261;52.456;10.850;2023-08-17T01:44:41;3.80;;;2.60;;
22191;SDS011;11261;52.456;10.850;2023-08-17T01:47:09;5.03;;;2.28;;
22191;SDS011;11261;52.456;10.850;2023-08-17T01:49:38;2.65;;;1.90;;
22191;SDS011;11261;52.456;10.850;2023-08-17T01:52:06;4.32;;;2.45;;
22191;SDS011;11261;52.456;10.850;2023-08-17T01:54:34;5.10;;;2.33;;
22191;SDS011;11261;52.456;10.850;2023-08-17T01:57:04;3.13;;;2.35;;
22191;SDS011;11261;52.456;10.850;2023-08-17T01:59:32;3.47;;;2.47;;
22191;SDS011;11261;52.456;10.850;2023-08-17T02:02:00;7.60;;;2.70;;
22191;SDS011;11261;52.456;10.850;2023-08-17T02:04:29;5.53;;;3.10;;
22191;SDS011;11261;52.456;10.850;2023-08-17T02:06:57;8.07;;;3.38;;
22191;SDS011;11261;52.456;10.850;2023-08-17T02:09:25;5.75;;;3.25;;
22191;SDS011;11261;52.456;10.850;2023-08-17T02:11:54;8.43;;;3.00;;
22191;SDS011;11261;52.456;10.850;2023-08-17T02:14:23;4.45;;;2.90;;
22191;SDS011;11261;52.456;10.850;2023-08-17T02:16:52;6.05;;;2.88;;
22191;SDS011;11261;52.456;10.850;2023-08-17T02:19:20;7.00;;;3.33;;
22191;SDS011;11261;52.456;10.850;2023-08-17T02:21:48;4.53;;;2.55;;
22191;SDS011;11261;52.456;10.850;2023-08-17T02:24:16;3.45;;;2.63;;
22191;SDS011;11261;52.456;10.850;2023-08-17T02:26:44;5.10;;;3.13;;
22191;SDS011;11261;52.456;10.850;2023-08-17T02:29:12;3.90;;;3.15;;
22191;SDS011;11261;52.456;10.850;2023-08-17T02:31:42;4.40;;;3.00;;
22191;SDS011;11261;52.456;10.850;2023-08-17T02:34:10;5.28;;;3.17;;
22191;SDS011;11261;52.456;10.850;2023-08-17T02:36:39;5.57;;;2.67;;
22191;SDS011;11261;52.456;10.850;2023-08-17T02:39:07;4.07;;;2.72;;
22191;SDS011;11261;52.456;10.850;2023-08-17T02:41:35;6.40;;;3.50;;
22191;SDS011;11261;52.456;10.850;2023-08-17T02:44:03;7.00;;;2.85;;
22191;SDS011;11261;52.456;10.850;2023-08-17T02:46:33;5.57;;;2.83;;
22191;SDS011;11261;52.456;10.850;2023-08-17T02:49:03;4.07;;;2.33;;
22191;SDS011;11261;52.456;10.850;2023-08-17T02:51:31;6.20;;;2.67;;
22191;SDS011;11261;52.456;10.850;2023-08-17T02:54:00;3.15;;;2.28;;
22191;SDS011;11261;52.456;10.850;2023-08-17T02:56:28;4.55;;;2.75;;
22191;SDS011;11261;52.456;10.850;2023-08-17T02:58:56;2.53;;;2.33;;
22191;SDS011;11261;52.456;10.850;2023-08-17T03:01:24;5.43;;;2.60;;
22191;SDS011;11261;52.456;10.850;2023-08-17T03:03:53;4.43;;;3.03;;
22191;SDS011;11261;52.456;10.850;2023-08-17T03:06:23;5.00;;;2.80;;
22191;SDS011;11261;52.456;10.850;2023-08-17T03:08:51;5.00;;;2.75;;
22191;SDS011;11261;52.456;10.850;2023-08-17T03:11:20;9.85;;;3.13;;
22191;SDS011;11261;52.456;10.850;2023-08-17T03:13:48;2.70;;;2.13;;
22191;SDS011;11261;52.456;10.850;2023-08-17T03:16:16;3.42;;;2.58;;
22191;SDS011;11261;52.456;10.850;2023-08-17T03:18:44;5.72;;;2.53;;
22191;SDS011;11261;52.456;10.850;2023-08-17T03:21:14;4.38;;;2.80;;
22191;SDS011;11261;52.456;10.850;2023-08-17T03:23:45;3.38;;;2.80;;
22191;SDS011;11261;52.456;10.850;2023-08-17T03:26:13;6.15;;;2.97;;
22191;SDS011;11261;52.456;10.850;2023-08-17T03:28:42;4.55;;;2.90;;
22191;SDS011;11261;52.456;10.850;2023-08-17T03:31:10;4.97;;;3.00;;
22191;SDS011;11261;52.456;10.850;2023-08-17T03:33:38;3.53;;;2.85;;
22191;SDS011;11261;52.456;10.850;2023-08-17T03:36:07;4.28;;;2.95;;
22191;SDS011;11261;52.456;10.850;2023-08-17T03:38:35;5.75;;;2.92;;
22191;SDS011;11261;52.456;10.850;2023-08-17T03:41:07;7.53;;;3.38;;
22191;SDS011;11261;52.456;10.850;2023-08-17T03:43:35;4.70;;;3.28;;
22191;SDS011;11261;52.456;10.850;2023-08-17T03:46:03;5.43;;;3.20;;
22191;SDS011;11261;52.456;10.850;2023-08-17T03:48:32;4.97;;;3.33;;
22191;SDS011;11261;52.456;10.850;2023-08-17T03:51:01;4.88;;;3.42;;
22191;SDS011;11261;52.456;10.850;2023-08-17T03:53:29;5.32;;;3.65;;
22191;SDS011;11261;52.456;10.850;2023-08-17T03:55:57;3.90;;;3.25;;
22191;SDS011;11261;52.456;10.850;2023-08-17T03:58:27;4.70;;;3.42;;
22191;SDS011;11261;52.456;10.850;2023-08-17T04:00:59;4.30;;;3.60;;
22191;SDS011;11261;52.456;10.850;2023-08-17T04:03:29;6.60;;;4.07;;
22191;SDS011;11261;52.456;10.850;2023-08-17T04:05:57;4.72;;;3.15;;
22191;SDS011;11261;52.456;10.850;2023-08-17T04:08:25;5.22;;;2.90;;
22191;SDS011;11261;52.456;10.850;2023-08-17T04:10:53;4.72;;;2.60;;
22191;SDS011;11261;52.456;10.850;2023-08-17T04:13:21;5.57;;;3.20;;
22191;SDS011;11261;52.456;10.850;2023-08-17T04:15:52;4.68;;;3.20;;
22191;SDS011;11261;52.456;10.850;2023-08-17T04:18:20;3.92;;;2.92;;
22191;SDS011;11261;52.456;10.850;2023-08-17T04:20:48;3.28;;;2.75;;
22191;SDS011;11261;52.456;10.850;2023-08-17T04:23:20;3.05;;;2.75;;
22191;SDS011;11261;52.456;10.850;2023-08-17T04:25:48;4.07;;;3.30;;
22191;SDS011;11261;52.456;10.850;2023-08-17T04:28:17;5.20;;;3.45;;
22191;SDS011;11261;52.456;10.850;2023-08-17T04:30:45;4.85;;;3.00;;
22191;SDS011;11261;52.456;10.850;2023-08-17T04:33:15;4.03;;;3.13;;
22191;SDS011;11261;52.456;10.850;2023-08-17T04:35:46;3.75;;;2.83;;
22191;SDS011;11261;52.456;10.850;2023-08-17T04:38:14;3.63;;;2.60;;
22191;SDS011;11261;52.456;10.850;2023-08-17T04:40:42;3.00;;;2.70;;
22191;SDS011;11261;52.456;10.850;2023-08-17T04:43:11;4.03;;;2.60;;
22191;SDS011;11261;52.456;10.850;2023-08-17T04:45:39;3.08;;;2.65;;
22191;SDS011;11261;52.456;10.850;2023-08-17T04:48:07;3.65;;;2.28;;
22191;SDS011;11261;52.456;10.850;2023-08-17T04:50:37;2.60;;;2.30;;
22191;SDS011;11261;52.456;10.850;2023-08-17T04:53:05;3.28;;;2.33;;
22191;SDS011;11261;52.456;10.850;2023-08-17T04:55:34;2.63;;;2.40;;
22191;SDS011;11261;52.456;10.850;2023-08-17T04:58:02;3.63;;;2.38;;
22191;SDS011;11261;52.456;10.850;2023-08-17T05:00:30;3.47;;;2.17;;
22191;SDS011;11261;52.456;10.850;2023-08-17T05:03:00;3.80;;;2.60;;
22191;SDS011;11261;52.456;10.850;2023-08-17T05:05:28;4.85;;;2.60;;
22191;SDS011;11261;52.456;10.850;2023-08-17T05:07:57;2.92;;;2.55;;
22191;SDS011;11261;52.456;10.850;2023-08-17T05:10:26;3.50;;;2.45;;
22191;SDS011;11261;52.456;10.850;2023-08-17T05:12:54;3.80;;;2.28;;
22191;SDS011;11261;52.456;10.850;2023-08-17T05:15:22;2.70;;;2.15;;
22191;SDS011;11261;52.456;10.850;2023-08-17T05:17:51;2.55;;;2.35;;
22191;SDS011;11261;52.456;10.850;2023-08-17T05:20:19;3.08;;;2.45;;
22191;SDS011;11261;52.456;10.850;2023-08-17T05:22:47;2.67;;;2.38;;
22191;SDS011;11261;52.456;10.850;2023-08-17T05:25:17;4.05;;;2.50;;
22191;SDS011;11261;52.456;10.850;2023-08-17T05:27:46;3.50;;;2.55;;
22191;SDS011;11261;52.456;10.850;2023-08-17T05:30:15;4.55;;;2.65;;
22191;SDS011;11261;52.456;10.850;2023-08-17T05:32:44;4.07;;;2.92;;
22191;SDS011;11261;52.456;10.850;2023-08-17T05:35:12;3.40;;;2.42;;
22191;SDS011;11261;52.456;10.850;2023-08-17T05:37:41;3.22;;;2.53;;
22191;SDS011;11261;52.456;10.850;2023-08-17T05:40:09;4.97;;;2.30;;
22191;SDS011;11261;52.456;10.850;2023-08-17T05:42:39;4.45;;;2.70;;
22191;SDS011;11261;52.456;10.850;2023-08-17T05:45:08;2.30;;;2.08;;
22191;SDS011;11261;52.456;10.850;2023-08-17T05:47:37;3.25;;;2.30;;
22191;SDS011;11261;52.456;10.850;2023-08-17T05:50:05;3.58;;;2.45;;
22191;SDS011;11261;52.456;10.850;2023-08-17T05:52:34;3.13;;;2.38;;
22191;SDS011;11261;52.456;10.850;2023-08-17T05:55:03;2.63;;;2.10;;
22191;SDS011;11261;52.456;10.850;2023-08-17T05:57:32;3.85;;;2.13;;
22191;SDS011;11261;52.456;10.850;2023-08-17T06:00:02;4.72;;;2.25;;
22191;SDS011;11261;52.456;10.850;2023-08-17T06:02:31;3.63;;;2.20;;
22191;SDS011;11261;52.456;10.850;2023-08-17T06:04:59;6.03;;;2.65;;
22191;SDS011;11261;52.456;10.850;2023-08-17T06:07:28;4.70;;;2.90;;
22191;SDS011;11261;52.456;10.850;2023-08-17T06:09:56;2.65;;;1.95;;
22191;SDS011;11261;52.456;10.850;2023-08-17T06:12:24;3.08;;;2.35;;
22191;SDS011;11261;52.456;10.850;2023-08-17T06:14:52;4.57;;;2.33;;
22191;SDS011;11261;52.456;10.850;2023-08-17T06:17:22;2.72;;;2.42;;
22191;SDS011;11261;52.456;10.850;2023-08-17T06:19:51;2.58;;;2.25;;
22191;SDS011;11261;52.456;10.850;2023-08-17T06:22:19;2.83;;;2.25;;
22191;SDS011;11261;52.456;10.850;2023-08-17T06:24:48;3.22;;;2.42;;
22191;SDS011;11261;52.456;10.850;2023-08-17T06:27:16;2.53;;;2.30;;
22191;SDS011;11261;52.456;10.850;2023-08-17T06:29:44;3.33;;;2.92;;
22191;SDS011;11261;52.456;10.850;2023-08-17T06:32:13;2.88;;;2.35;;
22191;SDS011;11261;52.456;10.850;2023-08-17T06:34:42;5.20;;;2.63;;
22191;SDS011;11261;52.456;10.850;2023-08-17T06:37:11;3.80;;;3.03;;
22191;SDS011;11261;52.456;10.850;2023-08-17T06:39:39;5.00;;;2.60;;
22191;SDS011;11261;52.456;10.850;2023-08-17T06:42:07;3.20;;;2.80;;
22191;SDS011;11261;52.456;10.850;2023-08-17T06:44:35;4.05;;;3.15;;
22191;SDS011;11261;52.456;10.850;2023-08-17T06:47:04;3.60;;;2.83;;
22191;SDS011;11261;52.456;10.850;2023-08-17T06:49:34;3.42;;;2.83;;
22191;SDS011;11261;52.456;10.850;2023-08-17T06:52:04;3.38;;;2.92;;
22191;SDS011;11261;52.456;10.850;2023-08-17T06:54:32;6.15;;;2.95;;
22191;SDS011;11261;52.456;10.850;2023-08-17T06:57:01;3.83;;;2.88;;
22191;SDS011;11261;52.456;10.850;2023-08-17T06:59:30;5.30;;;2.80;;
22191;SDS011;11261;52.456;10.850;2023-08-17T07:01:59;4.05;;;2.70;;
22191;SDS011;11261;52.456;10.850;2023-08-17T07:04:28;3.33;;;2.92;;
22191;SDS011;11261;52.456;10.850;2023-08-17T07:06:56;3.72;;;2.42;;
22191;SDS011;11261;52.456;10.850;2023-08-17T07:09:26;4.60;;;3.30;;
22191;SDS011;11261;52.456;10.850;2023-08-17T07:11:55;3.30;;;3.00;;
22191;SDS011;11261;52.456;10.850;2023-08-17T07:14:24;6.63;;;3.25;;
22191;SDS011;11261;52.456;10.850;2023-08-17T07:16:52;5.68;;;2.92;;
22191;SDS011;11261;52.456;10.850;2023-08-17T07:19:21;5.55;;;3.08;;
22191;SDS011;11261;52.456;10.850;2023-08-17T07:22:10;6.25;;;3.85;;
22191;SDS011;11261;52.456;10.850;2023-08-17T07:24:39;5.85;;;3.40;;
22191;SDS011;11261;52.456;10.850;2023-08-17T07:27:07;6.63;;;3.53;;
22191;SDS011;11261;52.456;10.850;2023-08-17T07:29:36;5.10;;;3.58;;
22191;SDS011;11261;52.456;10.850;2023-08-17T07:32:04;4.97;;;3.55;;
22191;SDS011;11261;52.456;10.850;2023-08-17T07:34:32;4.68;;;3.72;;
22191;SDS011;11261;52.456;10.850;2023-08-17T07:37:01;6.20;;;3.80;;
22191;SDS011;11261;52.456;10.850;2023-08-17T07:39:31;6.40;;;3.10;;
22191;SDS011;11261;52.456;10.850;2023-08-17T07:42:01;6.70;;;4.18;;
22191;SDS011;11261;52.456;10.850;2023-08-17T07:44:29;4.43;;;3.35;;
22191;SDS011;11261;52.456;10.850;2023-08-17T07:46:59;5.47;;;3.67;;
22191;SDS011;11261;52.456;10.850;2023-08-17T07:49:28;6.70;;;5.20;;
22191;SDS011;11261;52.456;10.850;2023-08-17T07:51:58;5.97;;;4.00;;
22191;SDS011;11261;52.456;10.850;2023-08-17T07:54:26;5.25;;;3.60;;
22191;SDS011;11261;52.456;10.850;2023-08-17T07:56:55;8.30;;;4.57;;
22191;SDS011;11261;52.456;10.850;2023-08-17T07:59:24;5.40;;;4.05;;
22191;SDS011;11261;52.456;10.850;2023-08-17T08:01:52;7.63;;;4.68;;
22191;SDS011;11261;52.456;10.850;2023-08-17T08:04:21;7.70;;;4.15;;
22191;SDS011;11261;52.456;10.850;2023-08-17T08:06:49;9.98;;;4.32;;
22191;SDS011;11261;52.456;10.850;2023-08-17T08:09:17;5.45;;;4.03;;
22191;SDS011;11261;52.456;10.850;2023-08-17T08:11:46;8.65;;;3.90;;
22191;SDS011;11261;52.456;10.850;2023-08-17T08:14:15;5.28;;;4.03;;
22191;SDS011;11261;52.456;10.850;2023-08-17T08:16:44;8.07;;;3.55;;
22191;SDS011;11261;52.456;10.850;2023-08-17T08:19:13;9.40;;;4.28;;
22191;SDS011;11261;52.456;10.850;2023-08-17T08:21:41;5.15;;;3.75;;
22191;SDS011;11261;52.456;10.850;2023-08-17T08:24:09;5.55;;;3.45;;
22191;SDS011;11261;52.456;10.850;2023-08-17T08:26:52;5.55;;;3.70;;
22191;SDS011;11261;52.456;10.850;2023-08-17T08:29:21;6.95;;;3.83;;
22191;SDS011;11261;52.456;10.850;2023-08-17T08:31:51;5.43;;;3.78;;
22191;SDS011;11261;52.456;10.850;2023-08-17T08:34:19;4.10;;;3.28;;
22191;SDS011;11261;52.456;10.850;2023-08-17T08:36:48;4.13;;;3.20;;
22191;SDS011;11261;52.456;10.850;2023-08-17T08:39:16;7.13;;;3.30;;
22191;SDS011;11261;52.456;10.850;2023-08-17T08:41:45;5.47;;;3.03;;
22191;SDS011;11261;52.456;10.850;2023-08-17T08:44:13;6.53;;;3.22;;
22191;SDS011;11261;52.456;10.850;2023-08-17T08:46:41;7.95;;;3.47;;
22191;SDS011;11261;52.456;10.850;2023-08-17T08:49:16;4.78;;;2.45;;
22191;SDS011;11261;52.456;10.850;2023-08-17T08:51:48;4.70;;;2.60;;
22191;SDS011;11261;52.456;10.850;2023-08-17T08:54:20;5.55;;;2.72;;
22191;SDS011;11261;52.456;10.850;2023-08-17T08:56:51;4.75;;;2.97;;
22191;SDS011;11261;52.456;10.850;2023-08-17T08:59:22;3.67;;;2.90;;
22191;SDS011;11261;52.456;10.850;2023-08-17T09:01:53;3.08;;;2.30;;
22191;SDS011;11261;52.456;10.850;2023-08-17T09:04:25;6.20;;;2.83;;
22191;SDS011;11261;52.456;10.850;2023-08-17T09:06:55;4.18;;;2.75;;
22191;SDS011;11261;52.456;10.850;2023-08-17T09:09:24;5.43;;;2.63;;
22191;SDS011;11261;52.456;10.850;2023-08-17T09:11:56;3.38;;;2.33;;
22191;SDS011;11261;52.456;10.850;2023-08-17T09:14:24;5.53;;;2.58;;
22191;SDS011;11261;52.456;10.850;2023-08-17T09:16:52;3.80;;;2.15;;
22191;SDS011;11261;52.456;10.850;2023-08-17T09:19:21;3.75;;;2.47;;
22191;SDS011;11261;52.456;10.850;2023-08-17T09:21:50;4.10;;;2.22;;
22191;SDS011;11261;52.456;10.850;2023-08-17T09:24:19;3.70;;;2.38;;
22191;SDS011;11261;52.456;10.850;2023-08-17T09:26:47;4.43;;;2.30;;
22191;SDS011;11261;52.456;10.850;2023-08-17T09:29:17;6.25;;;2.22;;
22191;SDS011;11261;52.456;10.850;2023-08-17T09:31:45;3.13;;;2.20;;
22191;SDS011;11261;52.456;10.850;2023-08-17T09:34:14;3.33;;;1.90;;
22191;SDS011;11261;52.456;10.850;2023-08-17T09:36:45;4.57;;;1.95;;
22191;SDS011;11261;52.456;10.850;2023-08-17T09:39:16;3.45;;;2.00;;
22191;SDS011;11261;52.456;10.850;2023-08-17T09:41:45;2.15;;;1.80;;
22191;SDS011;11261;52.456;10.850;2023-08-17T09:44:13;2.67;;;1.70;;
22191;SDS011;11261;52.456;10.850;2023-08-17T09:46:42;3.15;;;1.52;;
22191;SDS011;11261;52.456;10.850;2023-08-17T09:49:11;1.98;;;1.67;;
22191;SDS011;11261;52.456;10.850;2023-08-17T09:51:41;3.33;;;1.63;;
22191;SDS011;11261;52.456;10.850;2023-08-17T09:54:18;2.45;;;1.77;;
22191;SDS011;11261;52.456;10.850;2023-08-17T09:56:50;3.80;;;2.10;;
22191;SDS011;11261;52.456;10.850;2023-08-17T09:59:19;2.13;;;1.63;;
22191;SDS011;11261;52.456;10.850;2023-08-17T10:01:48;2.58;;;1.60;;
22191;SDS011;11261;52.456;10.850;2023-08-17T10:04:20;1.73;;;1.60;;
22191;SDS011;11261;52.456;10.850;2023-08-17T10:06:51;3.10;;;1.55;;
22191;SDS011;11261;52.456;10.850;2023-08-17T10:09:25;2.40;;;1.50;;
22191;SDS011;11261;52.456;10.850;2023-08-17T10:11:57;2.55;;;1.80;;
22191;SDS011;11261;52.456;10.850;2023-08-17T10:14:31;3.85;;;1.90;;
22191;SDS011;11261;52.456;10.850;2023-08-17T10:17:04;2.13;;;1.42;;
22191;SDS011;11261;52.456;10.850;2023-08-17T10:19:43;2.28;;;1.60;;
22191;SDS011;11261;52.456;10.850;2023-08-17T10:22:18;4.03;;;1.90;;
22191;SDS011;11261;52.456;10.850;2023-08-17T10:24:52;4.18;;;1.73;;
22191;SDS011;11261;52.456;10.850;2023-08-17T10:27:23;4.65;;;1.73;;
22191;SDS011;11261;52.456;10.850;2023-08-17T10:29:52;1.73;;;1.52;;
22191;SDS011;11261;52.456;10.850;2023-08-17T10:32:21;2.17;;;1.60;;
22191;SDS011;11261;52.456;10.850;2023-08-17T10:34:51;3.90;;;2.13;;
22191;SDS011;11261;52.456;10.850;2023-08-17T10:37:20;3.72;;;1.90;;
22191;SDS011;11261;52.456;10.850;2023-08-17T10:39:50;3.45;;;1.83;;
22191;SDS011;11261;52.456;10.850;2023-08-17T10:42:29;2.30;;;1.60;;
22191;SDS011;11261;52.456;10.850;2023-08-17T10:44:59;4.30;;;1.80;;
22191;SDS011;11261;52.456;10.850;2023-08-17T10:47:30;3.28;;;1.63;;
22191;SDS011;11261;52.456;10.850;2023-08-17T10:50:03;2.58;;;1.73;;
22191;SDS011;11261;52.456;10.850;2023-08-17T10:52:34;3.38;;;2.00;;
22191;SDS011;11261;52.456;10.850;2023-08-17T10:55:05;2.67;;;1.70;;
22191;SDS011;11261;52.456;10.850;2023-08-17T10:57:36;5.15;;;1.88;;
22191;SDS011;11261;52.456;10.850;2023-08-17T11:00:15;2.72;;;1.83;;
22191;SDS011;11261;52.456;10.850;2023-08-17T11:02:54;3.00;;;1.75;;
22191;SDS011;11261;52.456;10.850;2023-08-17T11:05:34;3.83;;;2.08;;
22191;SDS011;11261;52.456;10.850;2023-08-17T11:08:06;3.53;;;1.92;;
22191;SDS011;11261;52.456;10.850;2023-08-17T11:10:38;4.50;;;1.80;;
22191;SDS011;11261;52.456;10.850;2023-08-17T11:13:06;5.40;;;2.08;;
22191;SDS011;11261;52.456;10.850;2023-08-17T11:15:35;3.80;;;2.00;;
22191;SDS011;11261;52.456;10.850;2023-08-17T11:18:09;3.70;;;2.08;;
22191;SDS011;11261;52.456;10.850;2023-08-17T11:20:39;2.38;;;1.88;;
22191;SDS011;11261;52.456;10.850;2023-08-17T11:23:09;6.68;;;2.70;;
22191;SDS011;11261;52.456;10.850;2023-08-17T11:25:39;6.10;;;1.90;;
22191;SDS011;11261;52.456;10.850;2023-08-17T11:28:09;3.80;;;2.35;;
22191;SDS011;11261;52.456;10.850;2023-08-17T11:30:37;3.20;;;2.40;;
22191;SDS011;11261;52.456;10.850;2023-08-17T11:33:06;5.47;;;2.55;;
22191;SDS011;11261;52.456;10.850;2023-08-17T11:35:35;3.22;;;2.20;;
22191;SDS011;11261;52.456;10.850;2023-08-17T11:38:04;5.65;;;2.53;;
22191;SDS011;11261;52.456;10.850;2023-08-17T11:40:34;4.47;;;2.70;;
22191;SDS011;11261;52.456;10.850;2023-08-17T11:43:05;6.15;;;2.63;;
22191;SDS011;11261;52.456;10.850;2023-08-17T11:45:35;7.18;;;2.72;;
22191;SDS011;11261;52.456;10.850;2023-08-17T11:48:03;7.82;;;2.38;;
22191;SDS011;11261;52.456;10.850;2023-08-17T11:50:32;4.43;;;2.05;;
22191;SDS011;11261;52.456;10.850;2023-08-17T11:53:05;3.65;;;2.53;;
22191;SDS011;11261;52.456;10.850;2023-08-17T11:55:34;4.50;;;2.28;;
22191;SDS011;11261;52.456;10.850;2023-08-17T11:58:02;9.20;;;2.15;;
22191;SDS011;11261;52.456;10.850;2023-08-17T12:00:39;3.28;;;2.20;;
22191;SDS011;11261;52.456;10.850;2023-08-17T12:03:08;4.22;;;1.95;;
22191;SDS011;11261;52.456;10.850;2023-08-17T12:05:41;3.10;;;1.67;;
22191;SDS011;11261;52.456;10.850;2023-08-17T12:08:10;5.50;;;2.30;;
22191;SDS011;11261;52.456;10.850;2023-08-17T12:10:41;5.25;;;2.20;;
22191;SDS011;11261;52.456;10.850;2023-08-17T12:13:13;3.20;;;2.20;;
22191;SDS011;11261;52.456;10.850;2023-08-17T12:15:43;3.08;;;1.95;;
22191;SDS011;11261;52.456;10.850;2023-08-17T12:18:11;8.02;;;2.00;;
22191;SDS011;11261;52.456;10.850;2023-08-17T12:20:40;3.72;;;1.92;;
22191;SDS011;11261;52.456;10.850;2023-08-17T12:23:11;3.67;;;1.88;;
22191;SDS011;11261;52.456;10.850;2023-08-17T12:25:39;4.88;;;2.03;;
22191;SDS011;11261;52.456;10.850;2023-08-17T12:28:08;5.00;;;2.00;;
22191;SDS011;11261;52.456;10.850;2023-08-17T12:30:39;2.15;;;1.45;;
22191;SDS011;11261;52.456;10.850;2023-08-17T12:33:09;2.65;;;1.85;;
22191;SDS011;11261;52.456;10.850;2023-08-17T12:35:37;3.47;;;1.80;;
22191;SDS011;11261;52.456;10.850;2023-08-17T12:38:06;3.30;;;1.52;;
22191;SDS011;11261;52.456;10.850;2023-08-17T12:40:34;5.10;;;2.00;;
22191;SDS011;11261;52.456;10.850;2023-08-17T12:43:02;5.57;;;2.10;;
22191;SDS011;11261;52.456;10.850;2023-08-17T12:45:31;5.05;;;1.88;;
22191;SDS011;11261;52.456;10.850;2023-08-17T12:47:59;3.13;;;1.80;;
22191;SDS011;11261;52.456;10.850;2023-08-17T12:50:29;2.30;;;1.95;;
22191;SDS011;11261;52.456;10.850;2023-08-17T12:52:57;5.05;;;2.38;;
22191;SDS011;11261;52.456;10.850;2023-08-17T12:55:25;8.73;;;2.65;;
22191;SDS011;11261;52.456;10.850;2023-08-17T12:57:54;3.45;;;2.42;;
22191;SDS011;11261;52.456;10.850;2023-08-17T13:00:27;2.85;;;2.28;;
22191;SDS011;11261;52.456;10.850;2023-08-17T13:02:55;4.57;;;2.35;;
22191;SDS011;11261;52.456;10.850;2023-08-17T13:05:24;4.40;;;2.35;;
22191;SDS011;11261;52.456;10.850;2023-08-17T13:07:53;2.97;;;2.35;;
22191;SDS011;11261;52.456;10.850;2023-08-17T13:10:22;2.33;;;2.05;;
22191;SDS011;11261;52.456;10.850;2023-08-17T13:12:50;4.18;;;2.42;;
22191;SDS011;11261;52.456;10.850;2023-08-17T13:15:21;3.70;;;2.10;;
22191;SDS011;11261;52.456;10.850;2023-08-17T13:17:49;4.20;;;2.28;;
22191;SDS011;11261;52.456;10.850;2023-08-17T13:20:18;3.67;;;2.17;;
22191;SDS011;11261;52.456;10.850;2023-08-17T13:22:46;5.10;;;2.42;;
22191;SDS011;11261;52.456;10.850;2023-08-17T13:25:16;4.82;;;2.80;;
22191;SDS011;11261;52.456;10.850;2023-08-17T13:27:44;4.47;;;2.40;;
22191;SDS011;11261;52.456;10.850;2023-08-17T13:30:13;2.60;;;2.40;;
22191;SDS011;11261;52.456;10.850;2023-08-17T13:32:41;6.60;;;2.67;;
22191;SDS011;11261;52.456;10.850;2023-08-17T13:35:11;4.00;;;2.22;;
22191;SDS011;11261;52.456;10.850;2023-08-17T13:37:41;2.95;;;2.22;;
22191;SDS011;11261;52.456;10.850;2023-08-17T13:40:09;4.30;;;2.60;;
22191;SDS011;11261;52.456;10.850;2023-08-17T13:42:40;4.70;;;2.15;;
22191;SDS011;11261;52.456;10.850;2023-08-17T13:45:08;2.85;;;2.10;;
22191;SDS011;11261;52.456;10.850;2023-08-17T13:47:37;4.68;;;2.28;;
22191;SDS011;11261;52.456;10.850;2023-08-17T13:50:05;5.57;;;2.80;;
22191;SDS011;11261;52.456;10.850;2023-08-17T13:52:34;4.32;;;2.40;;
22191;SDS011;11261;52.456;10.850;2023-08-17T13:55:03;3.50;;;2.10;;
22191;SDS011;11261;52.456;10.850;2023-08-17T13:57:32;4.40;;;2.15;;
22191;SDS011;11261;52.456;10.850;2023-08-17T14:00:01;5.40;;;2.30;;
22191;SDS011;11261;52.456;10.850;2023-08-17T14:02:31;3.60;;;2.58;;
22191;SDS011;11261;52.456;10.850;2023-08-17T14:05:00;4.05;;;2.45;;
22191;SDS011;11261;52.456;10.850;2023-08-17T14:07:28;4.03;;;2.45;;
22191;SDS011;11261;52.456;10.850;2023-08-17T14:09:56;4.97;;;2.47;;
22191;SDS011;11261;52.456;10.850;2023-08-17T14:12:44;4.15;;;2.60;;
22191;SDS011;11261;52.456;10.850;2023-08-17T14:15:13;2.58;;;2.03;;
22191;SDS011;11261;52.456;10.850;2023-08-17T14:17:42;5.68;;;2.38;;
22191;SDS011;11261;52.456;10.850;2023-08-17T14:20:10;7.50;;;2.65;;
22191;SDS011;11261;52.456;10.850;2023-08-17T14:22:41;4.40;;;2.15;;
22191;SDS011;11261;52.456;10.850;2023-08-17T14:25:09;6.03;;;2.35;;
22191;SDS011;11261;52.456;10.850;2023-08-17T14:27:38;3.55;;;2.30;;
22191;SDS011;11261;52.456;10.850;2023-08-17T14:30:06;3.67;;;2.40;;
22191;SDS011;11261;52.456;10.850;2023-08-17T14:32:36;4.07;;;2.30;;
22191;SDS011;11261;52.456;10.850;2023-08-17T14:35:05;3.78;;;2.13;;
22191;SDS011;11261;52.456;10.850;2023-08-17T14:37:37;4.43;;;2.03;;
22191;SDS011;11261;52.456;10.850;2023-08-17T14:40:07;5.53;;;2.40;;
22191;SDS011;11261;52.456;10.850;2023-08-17T14:42:36;6.68;;;2.55;;
22191;SDS011;11261;52.456;10.850;2023-08-17T14:45:05;5.22;;;2.40;;
22191;SDS011;11261;52.456;10.850;2023-08-17T14:47:34;3.80;;;2.35;;